sensor_id;sensor_type;location;lat;lon;timestamp;P1;durP1;ratioP1;P2;durP2;ratioP2
27225;SDS011;14732;51.074;3.788;2023-01-19T00:00:08;13.98;;;7.63;;
27225;SDS011;14732;51.074;3.788;2023-01-19T00:02:36;15.18;;;8.13;;
27225;SDS011;14732;51.074;3.788;2023-01-19T00:05:02;15.50;;;8.20;;
27225;SDS011;14732;51.074;3.788;2023-01-19T00:07:29;13.55;;;8.00;;
27225;SDS011;14732;51.074;3.788;2023-01-19T00:09:56;14.10;;;8.00;;
27225;SDS011;14732;51.074;3.788;2023-01-19T00:12:22;16.27;;;8.20;;
27225;SDS011;14732;51.074;3.788;2023-01-19T00:14:48;14.18;;;8.25;;
27225;SDS011;14732;51.074;3.788;2023-01-19T00:17:14;17.13;;;8.77;;
27225;SDS011;14732;51.074;3.788;2023-01-19T00:19:39;16.75;;;8.25;;
27225;SDS011;14732;51.074;3.788;2023-01-19T00:22:05;15.93;;;8.20;;
27225;SDS011;14732;51.074;3.788;2023-01-19T00:24:31;17.50;;;8.43;;
27225;SDS011;14732;51.074;3.788;2023-01-19T00:26:58;17.13;;;8.05;;
27225;SDS011;14732;51.074;3.788;2023-01-19T00:29:27;16.00;;;7.78;;
27225;SDS011;14732;51.074;3.788;2023-01-19T00:32:00;15.43;;;7.88;;
27225;SDS011;14732;51.074;3.788;2023-01-19T00:34:28;13.40;;;7.82;;
27225;SDS011;14732;51.074;3.788;2023-01-19T00:37:01;15.52;;;7.90;;
27225;SDS011;14732;51.074;3.788;2023-01-19T00:39:27;16.95;;;8.13;;
27225;SDS011;14732;51.074;3.788;2023-01-19T00:41:53;18.85;;;7.20;;
27225;SDS011;14732;51.074;3.788;2023-01-19T00:44:37;11.50;;;7.47;;
27225;SDS011;14732;51.074;3.788;2023-01-19T00:47:21;17.40;;;8.40;;
27225;SDS011;14732;51.074;3.788;2023-01-19T00:49:48;19.98;;;8.60;;
27225;SDS011;14732;51.074;3.788;2023-01-19T00:52:14;15.38;;;7.35;;
27225;SDS011;14732;51.074;3.788;2023-01-19T00:54:40;18.40;;;8.25;;
27225;SDS011;14732;51.074;3.788;2023-01-19T00:57:06;14.27;;;8.18;;
27225;SDS011;14732;51.074;3.788;2023-01-19T00:59:31;18.83;;;8.48;;
27225;SDS011;14732;51.074;3.788;2023-01-19T01:01:58;11.52;;;7.60;;
27225;SDS011;14732;51.074;3.788;2023-01-19T01:04:24;14.35;;;8.02;;
27225;SDS011;14732;51.074;3.788;2023-01-19T01:06:50;17.38;;;7.63;;
27225;SDS011;14732;51.074;3.788;2023-01-19T01:09:16;19.67;;;8.77;;
27225;SDS011;14732;51.074;3.788;2023-01-19T01:11:42;16.48;;;7.93;;
27225;SDS011;14732;51.074;3.788;2023-01-19T01:14:08;17.98;;;8.05;;
27225;SDS011;14732;51.074;3.788;2023-01-19T01:16:35;17.83;;;7.28;;
27225;SDS011;14732;51.074;3.788;2023-01-19T01:19:01;18.15;;;7.68;;
27225;SDS011;14732;51.074;3.788;2023-01-19T01:21:27;16.70;;;8.15;;
27225;SDS011;14732;51.074;3.788;2023-01-19T01:23:53;21.95;;;8.77;;
27225;SDS011;14732;51.074;3.788;2023-01-19T01:26:19;17.45;;;8.10;;
27225;SDS011;14732;51.074;3.788;2023-01-19T01:28:46;23.77;;;8.68;;
27225;SDS011;14732;51.074;3.788;2023-01-19T01:34:46;17.73;;;8.52;;
27225;SDS011;14732;51.074;3.788;2023-01-19T01:37:12;20.20;;;8.88;;
27225;SDS011;14732;51.074;3.788;2023-01-19T01:39:39;20.45;;;8.43;;
27225;SDS011;14732;51.074;3.788;2023-01-19T01:42:13;16.35;;;7.97;;
27225;SDS011;14732;51.074;3.788;2023-01-19T01:50:05;21.60;;;9.20;;
27225;SDS011;14732;51.074;3.788;2023-01-19T01:52:40;11.77;;;7.63;;
27225;SDS011;14732;51.074;3.788;2023-01-19T01:55:10;21.73;;;8.70;;
27225;SDS011;14732;51.074;3.788;2023-01-19T01:57:40;21.20;;;8.10;;
27225;SDS011;14732;51.074;3.788;2023-01-19T02:00:09;17.13;;;8.50;;
27225;SDS011;14732;51.074;3.788;2023-01-19T02:07:45;14.68;;;8.35;;
27225;SDS011;14732;51.074;3.788;2023-01-19T02:10:57;13.88;;;7.93;;
27225;SDS011;14732;51.074;3.788;2023-01-19T02:13:44;20.95;;;9.48;;
27225;SDS011;14732;51.074;3.788;2023-01-19T02:16:11;17.55;;;8.40;;
27225;SDS011;14732;51.074;3.788;2023-01-19T02:18:39;25.05;;;8.68;;
27225;SDS011;14732;51.074;3.788;2023-01-19T02:23:50;16.52;;;9.18;;
27225;SDS011;14732;51.074;3.788;2023-01-19T02:26:24;21.35;;;9.77;;
27225;SDS011;14732;51.074;3.788;2023-01-19T02:28:54;22.80;;;9.30;;
27225;SDS011;14732;51.074;3.788;2023-01-19T02:31:26;24.15;;;9.60;;
27225;SDS011;14732;51.074;3.788;2023-01-19T02:33:55;26.63;;;9.52;;
27225;SDS011;14732;51.074;3.788;2023-01-19T02:36:23;20.67;;;9.40;;
27225;SDS011;14732;51.074;3.788;2023-01-19T02:38:51;19.92;;;8.70;;
27225;SDS011;14732;51.074;3.788;2023-01-19T02:41:22;17.52;;;8.48;;
27225;SDS011;14732;51.074;3.788;2023-01-19T02:43:52;16.92;;;7.97;;
27225;SDS011;14732;51.074;3.788;2023-01-19T02:46:20;17.80;;;7.50;;
27225;SDS011;14732;51.074;3.788;2023-01-19T02:48:46;16.00;;;7.15;;
27225;SDS011;14732;51.074;3.788;2023-01-19T02:51:16;19.50;;;8.10;;
27225;SDS011;14732;51.074;3.788;2023-01-19T03:07:46;13.52;;;5.82;;
27225;SDS011;14732;51.074;3.788;2023-01-19T03:16:22;18.17;;;6.43;;
27225;SDS011;14732;51.074;3.788;2023-01-19T03:19:06;16.08;;;5.63;;
27225;SDS011;14732;51.074;3.788;2023-01-19T03:22:02;15.77;;;5.20;;
27225;SDS011;14732;51.074;3.788;2023-01-19T03:24:33;15.13;;;5.57;;
27225;SDS011;14732;51.074;3.788;2023-01-19T03:27:05;14.80;;;5.18;;
27225;SDS011;14732;51.074;3.788;2023-01-19T03:29:38;11.02;;;5.72;;
27225;SDS011;14732;51.074;3.788;2023-01-19T03:32:10;16.75;;;5.60;;
27225;SDS011;14732;51.074;3.788;2023-01-19T03:34:39;17.55;;;5.45;;
27225;SDS011;14732;51.074;3.788;2023-01-19T03:37:09;10.82;;;5.10;;
27225;SDS011;14732;51.074;3.788;2023-01-19T03:39:37;14.18;;;5.18;;
27225;SDS011;14732;51.074;3.788;2023-01-19T03:42:04;11.63;;;5.50;;
27225;SDS011;14732;51.074;3.788;2023-01-19T03:44:33;15.00;;;6.18;;
27225;SDS011;14732;51.074;3.788;2023-01-19T03:47:01;16.02;;;7.18;;
27225;SDS011;14732;51.074;3.788;2023-01-19T03:49:30;15.93;;;7.03;;
27225;SDS011;14732;51.074;3.788;2023-01-19T03:51:57;14.85;;;6.10;;
27225;SDS011;14732;51.074;3.788;2023-01-19T03:54:23;9.52;;;5.93;;
27225;SDS011;14732;51.074;3.788;2023-01-19T03:56:49;10.85;;;5.43;;
27225;SDS011;14732;51.074;3.788;2023-01-19T03:59:16;14.80;;;5.60;;
27225;SDS011;14732;51.074;3.788;2023-01-19T04:01:43;10.55;;;5.38;;
27225;SDS011;14732;51.074;3.788;2023-01-19T04:04:10;12.40;;;5.38;;
27225;SDS011;14732;51.074;3.788;2023-01-19T04:06:37;12.48;;;5.40;;
27225;SDS011;14732;51.074;3.788;2023-01-19T04:09:03;10.75;;;5.18;;
27225;SDS011;14732;51.074;3.788;2023-01-19T04:11:29;12.45;;;5.43;;
27225;SDS011;14732;51.074;3.788;2023-01-19T04:13:55;10.25;;;5.30;;
27225;SDS011;14732;51.074;3.788;2023-01-19T04:16:21;10.75;;;5.10;;
27225;SDS011;14732;51.074;3.788;2023-01-19T04:18:47;11.43;;;5.20;;
27225;SDS011;14732;51.074;3.788;2023-01-19T04:21:14;12.80;;;5.80;;
27225;SDS011;14732;51.074;3.788;2023-01-19T04:23:40;11.40;;;5.20;;
27225;SDS011;14732;51.074;3.788;2023-01-19T04:26:08;10.88;;;5.55;;
27225;SDS011;14732;51.074;3.788;2023-01-19T04:28:34;9.25;;;5.93;;
27225;SDS011;14732;51.074;3.788;2023-01-19T04:31:01;14.52;;;6.38;;
27225;SDS011;14732;51.074;3.788;2023-01-19T04:33:27;14.98;;;6.90;;
27225;SDS011;14732;51.074;3.788;2023-01-19T04:35:53;18.95;;;6.90;;
27225;SDS011;14732;51.074;3.788;2023-01-19T04:38:20;16.25;;;6.85;;
27225;SDS011;14732;51.074;3.788;2023-01-19T04:40:50;15.18;;;7.25;;
27225;SDS011;14732;51.074;3.788;2023-01-19T04:43:17;17.30;;;7.38;;
27225;SDS011;14732;51.074;3.788;2023-01-19T04:45:44;12.25;;;7.00;;
27225;SDS011;14732;51.074;3.788;2023-01-19T04:48:10;18.00;;;7.20;;
27225;SDS011;14732;51.074;3.788;2023-01-19T04:50:36;15.35;;;8.23;;
27225;SDS011;14732;51.074;3.788;2023-01-19T04:53:02;15.68;;;7.95;;
27225;SDS011;14732;51.074;3.788;2023-01-19T04:55:28;22.58;;;9.40;;
27225;SDS011;14732;51.074;3.788;2023-01-19T04:57:54;18.25;;;9.43;;
27225;SDS011;14732;51.074;3.788;2023-01-19T05:00:20;19.90;;;8.85;;
27225;SDS011;14732;51.074;3.788;2023-01-19T05:02:46;16.15;;;8.77;;
27225;SDS011;14732;51.074;3.788;2023-01-19T05:05:12;19.60;;;8.57;;
27225;SDS011;14732;51.074;3.788;2023-01-19T05:07:37;28.10;;;9.10;;
27225;SDS011;14732;51.074;3.788;2023-01-19T05:10:04;18.67;;;9.40;;
27225;SDS011;14732;51.074;3.788;2023-01-19T05:12:30;21.67;;;9.30;;
27225;SDS011;14732;51.074;3.788;2023-01-19T05:14:56;28.23;;;9.30;;
27225;SDS011;14732;51.074;3.788;2023-01-19T05:17:22;21.38;;;9.85;;
27225;SDS011;14732;51.074;3.788;2023-01-19T05:19:48;22.30;;;9.48;;
27225;SDS011;14732;51.074;3.788;2023-01-19T05:22:13;22.23;;;9.18;;
27225;SDS011;14732;51.074;3.788;2023-01-19T05:24:39;19.13;;;9.70;;
27225;SDS011;14732;51.074;3.788;2023-01-19T05:27:05;17.33;;;8.90;;
27225;SDS011;14732;51.074;3.788;2023-01-19T05:29:31;21.58;;;9.32;;
27225;SDS011;14732;51.074;3.788;2023-01-19T05:31:57;22.83;;;10.02;;
27225;SDS011;14732;51.074;3.788;2023-01-19T05:34:22;27.15;;;10.25;;
27225;SDS011;14732;51.074;3.788;2023-01-19T05:36:48;27.60;;;10.27;;
27225;SDS011;14732;51.074;3.788;2023-01-19T05:39:15;22.35;;;9.95;;
27225;SDS011;14732;51.074;3.788;2023-01-19T05:41:40;23.38;;;10.25;;
27225;SDS011;14732;51.074;3.788;2023-01-19T05:44:08;21.88;;;10.02;;
27225;SDS011;14732;51.074;3.788;2023-01-19T05:46:33;24.23;;;9.27;;
27225;SDS011;14732;51.074;3.788;2023-01-19T05:48:59;25.35;;;10.15;;
27225;SDS011;14732;51.074;3.788;2023-01-19T05:51:28;25.73;;;10.20;;
27225;SDS011;14732;51.074;3.788;2023-01-19T05:53:59;24.67;;;9.18;;
27225;SDS011;14732;51.074;3.788;2023-01-19T05:56:25;21.63;;;9.63;;
27225;SDS011;14732;51.074;3.788;2023-01-19T05:58:51;22.50;;;9.75;;
27225;SDS011;14732;51.074;3.788;2023-01-19T06:01:16;30.00;;;10.13;;
27225;SDS011;14732;51.074;3.788;2023-01-19T06:03:42;26.63;;;10.90;;
27225;SDS011;14732;51.074;3.788;2023-01-19T06:06:08;30.80;;;10.73;;
27225;SDS011;14732;51.074;3.788;2023-01-19T06:08:34;26.60;;;10.27;;
27225;SDS011;14732;51.074;3.788;2023-01-19T06:11:00;25.60;;;10.00;;
27225;SDS011;14732;51.074;3.788;2023-01-19T06:13:25;20.42;;;10.57;;
27225;SDS011;14732;51.074;3.788;2023-01-19T06:16:00;24.25;;;10.63;;
27225;SDS011;14732;51.074;3.788;2023-01-19T06:18:27;31.83;;;11.52;;
27225;SDS011;14732;51.074;3.788;2023-01-19T06:20:54;25.05;;;9.98;;
27225;SDS011;14732;51.074;3.788;2023-01-19T06:23:29;29.50;;;10.77;;
27225;SDS011;14732;51.074;3.788;2023-01-19T06:25:56;29.77;;;11.80;;
27225;SDS011;14732;51.074;3.788;2023-01-19T06:28:21;32.15;;;10.90;;
27225;SDS011;14732;51.074;3.788;2023-01-19T06:30:50;33.72;;;12.23;;
27225;SDS011;14732;51.074;3.788;2023-01-19T06:33:18;23.60;;;11.38;;
27225;SDS011;14732;51.074;3.788;2023-01-19T06:35:44;29.55;;;11.02;;
27225;SDS011;14732;51.074;3.788;2023-01-19T06:38:10;28.23;;;11.93;;
27225;SDS011;14732;51.074;3.788;2023-01-19T06:40:38;30.60;;;11.48;;
27225;SDS011;14732;51.074;3.788;2023-01-19T06:43:04;27.42;;;10.95;;
27225;SDS011;14732;51.074;3.788;2023-01-19T06:45:30;32.97;;;10.23;;
27225;SDS011;14732;51.074;3.788;2023-01-19T06:47:56;23.95;;;10.40;;
27225;SDS011;14732;51.074;3.788;2023-01-19T06:50:21;29.85;;;10.90;;
27225;SDS011;14732;51.074;3.788;2023-01-19T06:52:48;32.97;;;10.57;;
27225;SDS011;14732;51.074;3.788;2023-01-19T06:55:15;24.95;;;10.27;;
27225;SDS011;14732;51.074;3.788;2023-01-19T06:57:41;24.90;;;10.80;;
27225;SDS011;14732;51.074;3.788;2023-01-19T07:00:08;28.52;;;10.82;;
27225;SDS011;14732;51.074;3.788;2023-01-19T07:02:36;31.27;;;10.40;;
27225;SDS011;14732;51.074;3.788;2023-01-19T07:05:02;20.95;;;9.20;;
27225;SDS011;14732;51.074;3.788;2023-01-19T07:07:28;29.58;;;10.65;;
27225;SDS011;14732;51.074;3.788;2023-01-19T07:09:54;27.27;;;11.13;;
27225;SDS011;14732;51.074;3.788;2023-01-19T07:12:20;27.23;;;9.93;;
27225;SDS011;14732;51.074;3.788;2023-01-19T07:14:46;29.90;;;11.82;;
27225;SDS011;14732;51.074;3.788;2023-01-19T07:17:13;30.35;;;12.00;;
27225;SDS011;14732;51.074;3.788;2023-01-19T07:19:39;26.95;;;11.40;;
27225;SDS011;14732;51.074;3.788;2023-01-19T07:22:04;23.67;;;10.27;;
27225;SDS011;14732;51.074;3.788;2023-01-19T07:24:30;28.40;;;10.90;;
27225;SDS011;14732;51.074;3.788;2023-01-19T07:26:57;34.05;;;10.60;;
27225;SDS011;14732;51.074;3.788;2023-01-19T07:29:23;29.38;;;11.50;;
27225;SDS011;14732;51.074;3.788;2023-01-19T07:31:49;25.35;;;11.68;;
27225;SDS011;14732;51.074;3.788;2023-01-19T07:34:18;42.30;;;11.95;;
27225;SDS011;14732;51.074;3.788;2023-01-19T07:36:44;27.48;;;11.77;;
27225;SDS011;14732;51.074;3.788;2023-01-19T07:39:10;31.80;;;11.70;;
27225;SDS011;14732;51.074;3.788;2023-01-19T07:41:35;24.75;;;11.98;;
27225;SDS011;14732;51.074;3.788;2023-01-19T07:44:01;33.28;;;11.80;;
27225;SDS011;14732;51.074;3.788;2023-01-19T07:46:27;22.23;;;11.05;;
27225;SDS011;14732;51.074;3.788;2023-01-19T07:48:52;26.65;;;11.10;;
27225;SDS011;14732;51.074;3.788;2023-01-19T07:51:18;39.67;;;12.13;;
27225;SDS011;14732;51.074;3.788;2023-01-19T07:53:44;30.65;;;12.50;;
27225;SDS011;14732;51.074;3.788;2023-01-19T07:56:10;27.27;;;12.15;;
27225;SDS011;14732;51.074;3.788;2023-01-19T07:58:36;29.05;;;13.50;;
27225;SDS011;14732;51.074;3.788;2023-01-19T08:01:06;35.53;;;12.90;;
27225;SDS011;14732;51.074;3.788;2023-01-19T08:03:33;27.90;;;12.68;;
27225;SDS011;14732;51.074;3.788;2023-01-19T08:05:59;32.47;;;12.75;;
27225;SDS011;14732;51.074;3.788;2023-01-19T08:08:27;30.77;;;13.70;;
27225;SDS011;14732;51.074;3.788;2023-01-19T08:10:53;32.17;;;14.00;;
27225;SDS011;14732;51.074;3.788;2023-01-19T08:13:19;27.42;;;12.48;;
27225;SDS011;14732;51.074;3.788;2023-01-19T08:15:47;24.05;;;11.30;;
27225;SDS011;14732;51.074;3.788;2023-01-19T08:18:15;26.65;;;12.00;;
27225;SDS011;14732;51.074;3.788;2023-01-19T08:20:41;29.75;;;11.75;;
27225;SDS011;14732;51.074;3.788;2023-01-19T08:23:07;26.15;;;10.68;;
27225;SDS011;14732;51.074;3.788;2023-01-19T08:25:42;19.35;;;10.02;;
27225;SDS011;14732;51.074;3.788;2023-01-19T08:28:09;20.95;;;9.77;;
27225;SDS011;14732;51.074;3.788;2023-01-19T08:30:37;20.45;;;8.82;;
27225;SDS011;14732;51.074;3.788;2023-01-19T08:33:04;20.10;;;8.75;;
27225;SDS011;14732;51.074;3.788;2023-01-19T08:35:39;17.75;;;8.85;;
27225;SDS011;14732;51.074;3.788;2023-01-19T08:38:06;19.45;;;9.63;;
27225;SDS011;14732;51.074;3.788;2023-01-19T08:40:34;20.30;;;8.80;;
27225;SDS011;14732;51.074;3.788;2023-01-19T08:43:03;24.80;;;9.15;;
27225;SDS011;14732;51.074;3.788;2023-01-19T08:45:35;19.60;;;8.80;;
27225;SDS011;14732;51.074;3.788;2023-01-19T08:48:03;21.73;;;7.72;;
27225;SDS011;14732;51.074;3.788;2023-01-19T08:50:30;18.13;;;8.10;;
27225;SDS011;14732;51.074;3.788;2023-01-19T08:52:57;23.17;;;7.63;;
27225;SDS011;14732;51.074;3.788;2023-01-19T08:55:24;18.73;;;7.00;;
27225;SDS011;14732;51.074;3.788;2023-01-19T08:57:53;11.93;;;6.60;;
27225;SDS011;14732;51.074;3.788;2023-01-19T09:00:21;16.13;;;6.38;;
27225;SDS011;14732;51.074;3.788;2023-01-19T09:02:47;17.35;;;6.50;;
27225;SDS011;14732;51.074;3.788;2023-01-19T09:05:13;13.82;;;5.10;;
27225;SDS011;14732;51.074;3.788;2023-01-19T09:07:39;11.98;;;4.72;;
27225;SDS011;14732;51.074;3.788;2023-01-19T09:10:05;14.30;;;5.00;;
27225;SDS011;14732;51.074;3.788;2023-01-19T09:12:32;10.18;;;5.32;;
27225;SDS011;14732;51.074;3.788;2023-01-19T09:14:58;11.45;;;5.20;;
27225;SDS011;14732;51.074;3.788;2023-01-19T09:17:23;16.83;;;5.82;;
27225;SDS011;14732;51.074;3.788;2023-01-19T09:19:49;13.98;;;5.50;;
27225;SDS011;14732;51.074;3.788;2023-01-19T09:22:15;14.07;;;5.95;;
27225;SDS011;14732;51.074;3.788;2023-01-19T09:24:40;15.65;;;6.10;;
27225;SDS011;14732;51.074;3.788;2023-01-19T09:27:06;13.95;;;5.80;;
27225;SDS011;14732;51.074;3.788;2023-01-19T09:29:32;18.73;;;6.53;;
27225;SDS011;14732;51.074;3.788;2023-01-19T09:31:57;13.52;;;6.32;;
27225;SDS011;14732;51.074;3.788;2023-01-19T09:34:23;11.55;;;6.75;;
27225;SDS011;14732;51.074;3.788;2023-01-19T09:36:52;13.67;;;6.60;;
27225;SDS011;14732;51.074;3.788;2023-01-19T09:39:17;16.98;;;6.07;;
27225;SDS011;14732;51.074;3.788;2023-01-19T09:41:44;19.85;;;6.95;;
27225;SDS011;14732;51.074;3.788;2023-01-19T09:44:19;19.33;;;6.93;;
27225;SDS011;14732;51.074;3.788;2023-01-19T09:46:53;18.92;;;7.30;;
27225;SDS011;14732;51.074;3.788;2023-01-19T09:49:27;16.90;;;7.10;;
27225;SDS011;14732;51.074;3.788;2023-01-19T09:52:00;13.73;;;6.65;;
27225;SDS011;14732;51.074;3.788;2023-01-19T09:54:28;21.10;;;7.50;;
27225;SDS011;14732;51.074;3.788;2023-01-19T09:57:00;21.63;;;8.05;;
27225;SDS011;14732;51.074;3.788;2023-01-19T09:59:30;17.75;;;7.65;;
27225;SDS011;14732;51.074;3.788;2023-01-19T10:04:49;19.25;;;8.48;;
27225;SDS011;14732;51.074;3.788;2023-01-19T10:10:23;23.70;;;9.32;;
27225;SDS011;14732;51.074;3.788;2023-01-19T10:18:16;28.70;;;11.00;;
27225;SDS011;14732;51.074;3.788;2023-01-19T10:28:48;30.23;;;10.77;;
27225;SDS011;14732;51.074;3.788;2023-01-19T10:33:45;28.38;;;11.27;;
27225;SDS011;14732;51.074;3.788;2023-01-19T10:36:26;28.00;;;11.68;;
27225;SDS011;14732;51.074;3.788;2023-01-19T10:38:57;30.90;;;12.00;;
27225;SDS011;14732;51.074;3.788;2023-01-19T10:41:42;25.75;;;12.07;;
27225;SDS011;14732;51.074;3.788;2023-01-19T10:44:26;29.38;;;12.02;;
27225;SDS011;14732;51.074;3.788;2023-01-19T10:46:54;26.65;;;11.85;;
27225;SDS011;14732;51.074;3.788;2023-01-19T10:49:38;30.70;;;11.75;;
27225;SDS011;14732;51.074;3.788;2023-01-19T10:54:55;28.30;;;11.30;;
27225;SDS011;14732;51.074;3.788;2023-01-19T10:57:27;24.02;;;11.98;;
27225;SDS011;14732;51.074;3.788;2023-01-19T10:59:56;28.85;;;12.38;;
27225;SDS011;14732;51.074;3.788;2023-01-19T11:02:26;29.90;;;12.98;;
27225;SDS011;14732;51.074;3.788;2023-01-19T11:04:54;31.60;;;13.00;;
27225;SDS011;14732;51.074;3.788;2023-01-19T11:07:22;28.80;;;12.32;;
27225;SDS011;14732;51.074;3.788;2023-01-19T11:12:54;27.75;;;12.00;;
27225;SDS011;14732;51.074;3.788;2023-01-19T11:15:43;29.08;;;12.68;;
27225;SDS011;14732;51.074;3.788;2023-01-19T11:20:49;32.15;;;13.45;;
27225;SDS011;14732;51.074;3.788;2023-01-19T11:25:53;28.60;;;13.32;;
27225;SDS011;14732;51.074;3.788;2023-01-19T11:30:55;34.58;;;14.02;;
27225;SDS011;14732;51.074;3.788;2023-01-19T11:33:22;30.00;;;13.60;;
27225;SDS011;14732;51.074;3.788;2023-01-19T11:35:49;26.50;;;13.23;;
27225;SDS011;14732;51.074;3.788;2023-01-19T11:38:26;28.95;;;12.93;;
27225;SDS011;14732;51.074;3.788;2023-01-19T11:40:53;26.08;;;13.25;;
27225;SDS011;14732;51.074;3.788;2023-01-19T11:43:22;30.07;;;13.60;;
27225;SDS011;14732;51.074;3.788;2023-01-19T11:45:51;26.80;;;13.32;;
27225;SDS011;14732;51.074;3.788;2023-01-19T11:48:28;27.55;;;14.57;;
27225;SDS011;14732;51.074;3.788;2023-01-19T11:50:58;29.73;;;14.23;;
27225;SDS011;14732;51.074;3.788;2023-01-19T11:53:27;30.08;;;13.73;;
27225;SDS011;14732;51.074;3.788;2023-01-19T11:55:59;27.38;;;13.80;;
27225;SDS011;14732;51.074;3.788;2023-01-19T11:58:39;26.02;;;13.05;;
27225;SDS011;14732;51.074;3.788;2023-01-19T12:04:04;22.95;;;12.32;;
27225;SDS011;14732;51.074;3.788;2023-01-19T12:06:40;23.05;;;11.40;;
27225;SDS011;14732;51.074;3.788;2023-01-19T12:11:50;29.95;;;13.38;;
27225;SDS011;14732;51.074;3.788;2023-01-19T12:14:24;21.85;;;11.55;;
27225;SDS011;14732;51.074;3.788;2023-01-19T12:16:57;24.02;;;11.90;;
27225;SDS011;14732;51.074;3.788;2023-01-19T12:22:39;24.52;;;11.90;;
27225;SDS011;14732;51.074;3.788;2023-01-19T12:25:21;26.73;;;11.40;;
27225;SDS011;14732;51.074;3.788;2023-01-19T12:27:49;25.70;;;12.93;;
27225;SDS011;14732;51.074;3.788;2023-01-19T12:30:21;23.33;;;12.05;;
27225;SDS011;14732;51.074;3.788;2023-01-19T12:32:49;23.10;;;12.98;;
27225;SDS011;14732;51.074;3.788;2023-01-19T12:43:48;25.98;;;13.75;;
27225;SDS011;14732;51.074;3.788;2023-01-19T12:46:51;23.38;;;12.43;;
27225;SDS011;14732;51.074;3.788;2023-01-19T12:49:41;22.52;;;12.52;;
27225;SDS011;14732;51.074;3.788;2023-01-19T12:52:17;31.50;;;13.23;;
27225;SDS011;14732;51.074;3.788;2023-01-19T12:55:05;25.98;;;12.80;;
27225;SDS011;14732;51.074;3.788;2023-01-19T13:15:51;25.48;;;14.65;;
27225;SDS011;14732;51.074;3.788;2023-01-19T13:21:00;25.40;;;12.95;;
27225;SDS011;14732;51.074;3.788;2023-01-19T13:26:15;24.73;;;13.00;;
27225;SDS011;14732;51.074;3.788;2023-01-19T13:28:44;27.08;;;12.27;;
27225;SDS011;14732;51.074;3.788;2023-01-19T13:31:14;24.13;;;12.55;;
27225;SDS011;14732;51.074;3.788;2023-01-19T13:33:51;30.27;;;12.75;;
27225;SDS011;14732;51.074;3.788;2023-01-19T13:36:31;22.35;;;11.95;;
27225;SDS011;14732;51.074;3.788;2023-01-19T13:39:03;25.35;;;11.80;;
27225;SDS011;14732;51.074;3.788;2023-01-19T13:41:34;26.42;;;11.77;;
27225;SDS011;14732;51.074;3.788;2023-01-19T13:44:02;26.08;;;11.90;;
27225;SDS011;14732;51.074;3.788;2023-01-19T13:46:37;23.23;;;11.95;;
27225;SDS011;14732;51.074;3.788;2023-01-19T13:49:04;20.30;;;11.45;;
27225;SDS011;14732;51.074;3.788;2023-01-19T13:51:41;20.90;;;11.50;;
27225;SDS011;14732;51.074;3.788;2023-01-19T13:54:13;22.30;;;12.15;;
27225;SDS011;14732;51.074;3.788;2023-01-19T13:56:45;25.90;;;11.57;;
27225;SDS011;14732;51.074;3.788;2023-01-19T13:59:18;22.70;;;11.50;;
27225;SDS011;14732;51.074;3.788;2023-01-19T14:01:44;23.52;;;12.02;;
27225;SDS011;14732;51.074;3.788;2023-01-19T14:04:23;25.08;;;12.75;;
27225;SDS011;14732;51.074;3.788;2023-01-19T14:06:50;28.57;;;12.73;;
27225;SDS011;14732;51.074;3.788;2023-01-19T14:09:19;24.45;;;12.02;;
27225;SDS011;14732;51.074;3.788;2023-01-19T14:11:46;25.90;;;11.57;;
27225;SDS011;14732;51.074;3.788;2023-01-19T14:14:32;23.92;;;12.32;;
27225;SDS011;14732;51.074;3.788;2023-01-19T14:16:58;23.25;;;11.60;;
27225;SDS011;14732;51.074;3.788;2023-01-19T14:19:24;28.08;;;12.43;;
27225;SDS011;14732;51.074;3.788;2023-01-19T14:22:00;28.70;;;12.65;;
27225;SDS011;14732;51.074;3.788;2023-01-19T14:24:27;27.40;;;12.30;;
27225;SDS011;14732;51.074;3.788;2023-01-19T14:27:17;23.00;;;11.88;;
27225;SDS011;14732;51.074;3.788;2023-01-19T14:29:48;21.15;;;11.52;;
27225;SDS011;14732;51.074;3.788;2023-01-19T14:32:21;23.55;;;11.95;;
27225;SDS011;14732;51.074;3.788;2023-01-19T14:34:52;26.45;;;11.60;;
27225;SDS011;14732;51.074;3.788;2023-01-19T14:37:35;21.10;;;11.48;;
27225;SDS011;14732;51.074;3.788;2023-01-19T14:42:37;22.58;;;11.45;;
27225;SDS011;14732;51.074;3.788;2023-01-19T14:47:40;23.02;;;11.63;;
27225;SDS011;14732;51.074;3.788;2023-01-19T14:50:20;22.88;;;11.40;;
27225;SDS011;14732;51.074;3.788;2023-01-19T14:52:55;24.90;;;12.63;;
27225;SDS011;14732;51.074;3.788;2023-01-19T14:55:27;23.80;;;11.48;;
27225;SDS011;14732;51.074;3.788;2023-01-19T14:58:07;22.95;;;11.23;;
27225;SDS011;14732;51.074;3.788;2023-01-19T15:00:36;25.75;;;12.48;;
27225;SDS011;14732;51.074;3.788;2023-01-19T15:03:02;25.67;;;11.57;;
27225;SDS011;14732;51.074;3.788;2023-01-19T15:05:30;23.13;;;12.02;;
27225;SDS011;14732;51.074;3.788;2023-01-19T15:07:56;23.02;;;13.07;;
27225;SDS011;14732;51.074;3.788;2023-01-19T15:10:22;25.48;;;12.13;;
27225;SDS011;14732;51.074;3.788;2023-01-19T15:12:49;23.83;;;11.80;;
27225;SDS011;14732;51.074;3.788;2023-01-19T15:15:21;23.92;;;12.18;;
27225;SDS011;14732;51.074;3.788;2023-01-19T15:17:52;23.85;;;11.60;;
27225;SDS011;14732;51.074;3.788;2023-01-19T15:20:18;23.27;;;11.88;;
27225;SDS011;14732;51.074;3.788;2023-01-19T15:22:47;24.02;;;12.40;;
27225;SDS011;14732;51.074;3.788;2023-01-19T15:25:14;23.08;;;11.68;;
27225;SDS011;14732;51.074;3.788;2023-01-19T15:27:42;26.33;;;11.32;;
27225;SDS011;14732;51.074;3.788;2023-01-19T15:30:16;23.25;;;12.60;;
27225;SDS011;14732;51.074;3.788;2023-01-19T15:32:47;22.20;;;12.40;;
27225;SDS011;14732;51.074;3.788;2023-01-19T15:37:46;29.42;;;12.10;;
27225;SDS011;14732;51.074;3.788;2023-01-19T15:40:13;24.05;;;12.38;;
27225;SDS011;14732;51.074;3.788;2023-01-19T15:42:40;26.92;;;12.68;;
27225;SDS011;14732;51.074;3.788;2023-01-19T15:47:44;23.38;;;12.30;;
27225;SDS011;14732;51.074;3.788;2023-01-19T15:50:10;25.88;;;12.45;;
27225;SDS011;14732;51.074;3.788;2023-01-19T15:52:35;24.35;;;13.25;;
27225;SDS011;14732;51.074;3.788;2023-01-19T15:55:01;22.85;;;12.63;;
27225;SDS011;14732;51.074;3.788;2023-01-19T15:57:26;27.48;;;13.43;;
27225;SDS011;14732;51.074;3.788;2023-01-19T15:59:52;34.80;;;13.85;;
27225;SDS011;14732;51.074;3.788;2023-01-19T16:02:18;32.85;;;13.82;;
27225;SDS011;14732;51.074;3.788;2023-01-19T16:04:47;31.70;;;14.00;;
27225;SDS011;14732;51.074;3.788;2023-01-19T16:07:13;34.70;;;15.20;;
27225;SDS011;14732;51.074;3.788;2023-01-19T16:09:38;32.55;;;14.60;;
27225;SDS011;14732;51.074;3.788;2023-01-19T16:12:04;28.98;;;13.48;;
27225;SDS011;14732;51.074;3.788;2023-01-19T16:14:30;29.35;;;14.52;;
27225;SDS011;14732;51.074;3.788;2023-01-19T16:16:56;30.27;;;14.60;;
27225;SDS011;14732;51.074;3.788;2023-01-19T16:19:24;32.70;;;14.25;;
27225;SDS011;14732;51.074;3.788;2023-01-19T16:21:49;28.65;;;15.30;;
27225;SDS011;14732;51.074;3.788;2023-01-19T16:24:15;31.20;;;14.70;;
27225;SDS011;14732;51.074;3.788;2023-01-19T16:26:42;31.27;;;15.75;;
27225;SDS011;14732;51.074;3.788;2023-01-19T16:29:07;28.98;;;14.13;;
27225;SDS011;14732;51.074;3.788;2023-01-19T16:31:38;31.00;;;14.65;;
27225;SDS011;14732;51.074;3.788;2023-01-19T16:34:05;29.42;;;14.10;;
27225;SDS011;14732;51.074;3.788;2023-01-19T16:36:32;30.88;;;15.57;;
27225;SDS011;14732;51.074;3.788;2023-01-19T16:39:04;34.38;;;14.45;;
27225;SDS011;14732;51.074;3.788;2023-01-19T16:41:31;30.30;;;14.95;;